Terminal Aerodrome Forecast
Issued by NWS

Current Version | Previous Version | Text Only | Print | Product List | Glossary On
Versions: 1 2 3 4 5 6 7 8 9 10 11 12 13 14 15 16 17 18 19 20 21 22 23 24
678
FTUS41 KBUF 081501 AAA
TAFJHW
TAF AMD
KJHW 081501Z 0815/0912 15010KT P6SM BKN060
     FM082000 14010KT P6SM VCSH SCT035 BKN060
     FM082300 14008KT 4SM -RASN BKN035
     FM090200 15008KT 2SM -SN OVC015
     FM090600 18006KT 2SM -SN BR OVC007
      AMD LTD TO CLD VIS AND WIND=

USA.gov is the U.S. government's official web portal to all federal, state and local government web resources and services.